Time;durP1;ratioP1;P1;durP2;ratioP2;P2;SDS_P1;SDS_P2;PMS_P1;PMS_P2;Temp;Humidity;BMP_temperature;BMP_pressure;BME280_temperature;BME280_humidity;BME280_pressure;Samples;Min_cycle;Max_cycle;Signal;HPM_P1;HPM_P2
2022/05/04 00:00:09;;;;;;;9.60;1.90;;;9.40;94.40;;;;;;5090428;28;20400;-77
2022/05/04 00:02:35;;;;;;;8.27;1.60;;;9.40;94.40;;;;;;5110958;28;20473;-77
2022/05/04 00:05:01;;;;;;;11.05;1.67;;;9.40;94.60;;;;;;5092265;28;20404;-77
2022/05/04 00:07:27;;;;;;;8.90;1.83;;;9.40;95.10;;;;;;5110317;28;20421;-77
2022/05/04 00:09:52;;;;;;;9.20;1.70;;;9.40;95.00;;;;;;5110071;28;20404;-77
2022/05/04 00:12:18;;;;;;;9.63;1.90;;;9.40;94.70;;;;;;5110826;28;20901;-77
2022/05/04 00:14:43;;;;;;;10.35;1.83;;;9.40;95.00;;;;;;5109954;28;20591;-77
2022/05/04 00:17:09;;;;;;;11.00;1.97;;;9.40;94.70;;;;;;5110061;28;20389;-77
2022/05/04 00:19:34;;;;;;;7.75;1.90;;;9.40;95.00;;;;;;5110594;28;20389;-76
2022/05/04 00:22:00;;;;;;;9.60;2.03;;;9.50;94.90;;;;;;5110028;28;20963;-76
2022/05/04 00:24:26;;;;;;;8.88;2.20;;;9.50;94.80;;;;;;5092187;28;20893;-76
2022/05/04 00:26:51;;;;;;;9.40;2.00;;;9.40;94.80;;;;;;5109840;28;20485;-77
2022/05/04 00:29:17;;;;;;;10.60;2.50;;;9.40;94.50;;;;;;5091680;28;20427;-77
2022/05/04 00:31:42;;;;;;;12.27;2.50;;;9.40;95.00;;;;;;5109858;28;20396;-77
2022/05/04 00:34:08;;;;;;;10.50;2.17;;;9.40;95.30;;;;;;5091933;28;20419;-76
2022/05/04 00:36:33;;;;;;;9.27;1.93;;;9.40;95.10;;;;;;5091918;28;20415;-76
2022/05/04 00:38:59;;;;;;;8.93;1.90;;;9.40;94.90;;;;;;5091873;28;20974;-76
2022/05/04 00:41:25;;;;;;;12.67;2.30;;;9.40;95.20;;;;;;5109647;28;20426;-74
2022/05/04 00:43:52;;;;;;;9.90;2.05;;;9.30;94.80;;;;;;5091507;28;20437;-76
2022/05/04 00:46:18;;;;;;;13.68;2.10;;;9.30;95.00;;;;;;5109841;28;20936;-75
2022/05/04 00:48:43;;;;;;;8.85;1.98;;;9.30;95.40;;;;;;5109812;28;20388;-76
2022/05/04 00:51:09;;;;;;;8.33;1.70;;;9.20;94.90;;;;;;5109217;28;20824;-78
2022/05/04 00:53:35;;;;;;;10.63;1.88;;;9.30;94.80;;;;;;5109372;28;20427;-76
2022/05/04 00:56:01;;;;;;;7.60;2.00;;;9.20;95.10;;;;;;5091469;28;20491;-76
2022/05/04 01:01:13;;;;;;;7.57;1.60;;;9.20;95.30;;;;;;5109721;28;20400;-76
2022/05/04 01:03:38;;;;;;;10.27;2.00;;;9.20;95.10;;;;;;5108806;28;20401;-76
2022/05/04 01:06:04;;;;;;;8.38;1.85;;;9.20;95.30;;;;;;5109386;28;20920;-76
2022/05/04 01:08:30;;;;;;;7.67;1.60;;;9.20;95.70;;;;;;5109342;28;20446;-76
2022/05/04 01:10:55;;;;;;;6.63;1.90;;;9.20;95.80;;;;;;5110012;28;20901;-76
2022/05/04 01:13:21;;;;;;;11.80;2.10;;;9.30;95.40;;;;;;5091401;28;20817;-76
2022/05/04 01:15:48;;;;;;;7.28;1.50;;;9.20;95.50;;;;;;5091761;28;20495;-76
2022/05/04 01:18:14;;;;;;;8.13;1.65;;;9.20;95.70;;;;;;5092084;28;20415;-76
2022/05/04 01:20:39;;;;;;;8.13;1.30;;;9.20;95.10;;;;;;5109904;28;20890;-76
2022/05/04 01:23:05;;;;;;;6.38;1.52;;;9.10;95.00;;;;;;5109509;28;20400;-76
2022/05/04 01:25:31;;;;;;;6.45;1.40;;;9.10;95.30;;;;;;5110149;28;20473;-76
2022/05/04 01:27:57;;;;;;;7.87;1.73;;;9.20;95.10;;;;;;5109850;28;20447;-77
2022/05/04 01:30:23;;;;;;;7.47;1.50;;;9.20;95.30;;;;;;5109804;28;20388;-76
2022/05/04 01:32:49;;;;;;;8.97;1.40;;;9.20;95.20;;;;;;5109417;28;20829;-76
2022/05/04 01:35:15;;;;;;;7.57;1.63;;;9.20;94.80;;;;;;5091543;28;20492;-76
2022/05/04 01:37:41;;;;;;;8.48;1.50;;;9.20;94.50;;;;;;5101716;28;20404;-76
2022/05/04 01:40:07;;;;;;;9.85;1.90;;;9.20;94.20;;;;;;5108990;28;20396;-75
2022/05/04 01:42:33;;;;;;;7.95;1.65;;;9.20;94.00;;;;;;5109602;28;20920;-76
2022/05/04 01:44:59;;;;;;;7.38;1.35;;;9.20;94.30;;;;;;5090581;28;20512;-76
2022/05/04 01:47:24;;;;;;;6.87;1.30;;;9.20;94.30;;;;;;5109093;28;20428;-76
2022/05/04 01:49:50;;;;;;;8.07;1.67;;;9.20;94.10;;;;;;5109099;28;20505;-76
2022/05/04 01:52:16;;;;;;;8.38;1.83;;;9.20;94.20;;;;;;5109325;28;20517;-76
2022/05/04 01:54:41;;;;;;;9.13;1.80;;;9.20;94.40;;;;;;5109209;28;21051;-76
2022/05/04 01:57:07;;;;;;;7.50;1.58;;;9.20;94.50;;;;;;5108764;28;21249;-76
2022/05/04 01:59:33;;;;;;;7.28;1.40;;;9.20;94.80;;;;;;5109323;28;20408;-76
2022/05/04 02:01:59;;;;;;;10.00;1.80;;;9.20;94.90;;;;;;5090910;28;20396;-76
2022/05/04 02:04:25;;;;;;;8.18;1.83;;;9.20;94.70;;;;;;5091066;28;20534;-77
2022/05/04 02:06:52;;;;;;;9.87;1.93;;;9.20;95.10;;;;;;5109077;28;20956;-76
2022/05/04 02:09:17;;;;;;;8.75;1.63;;;9.20;95.80;;;;;;5109203;28;20397;-76
2022/05/04 02:11:43;;;;;;;7.70;2.10;;;9.20;95.50;;;;;;5107633;28;20414;-76
2022/05/04 02:14:09;;;;;;;7.33;1.63;;;9.20;95.60;;;;;;5107899;28;20467;-76
2022/05/04 02:16:35;;;;;;;9.03;1.87;;;9.20;96.00;;;;;;5108019;28;20388;-76
2022/05/04 02:19:00;;;;;;;10.10;2.08;;;9.20;96.40;;;;;;5107954;28;20394;-76
2022/05/04 02:21:26;;;;;;;8.63;1.77;;;9.20;96.30;;;;;;5108004;28;20445;-76
2022/05/04 02:23:52;;;;;;;7.97;1.70;;;9.20;96.50;;;;;;5107055;28;20930;-76
2022/05/04 02:26:18;;;;;;;9.70;2.03;;;9.30;96.40;;;;;;5107746;28;20978;-76
2022/05/04 02:28:44;;;;;;;9.33;1.70;;;9.20;96.50;;;;;;5107978;28;20400;-76
2022/05/04 02:31:10;;;;;;;7.90;1.83;;;9.20;96.60;;;;;;5108034;28;20403;-76
2022/05/04 02:33:36;;;;;;;9.13;2.05;;;9.30;96.90;;;;;;5089868;28;20396;-77
2022/05/04 02:38:46;;;;;;;9.40;1.95;;;9.20;97.00;;;;;;5107371;28;20436;-76
2022/05/04 02:41:12;;;;;;;8.10;1.80;;;9.30;97.00;;;;;;5089244;28;20435;-76
2022/05/04 02:43:37;;;;;;;8.00;1.75;;;9.20;96.90;;;;;;5107974;28;20514;-76
2022/05/04 02:46:18;;;;;;;10.73;2.00;;;9.20;96.90;;;;;;5107157;28;20454;-76
2022/05/04 02:48:45;;;;;;;11.30;2.10;;;9.20;97.00;;;;;;5108489;28;20448;-76
2022/05/04 02:51:11;;;;;;;10.48;2.30;;;9.20;97.30;;;;;;5108360;28;20902;-76
2022/05/04 02:53:37;;;;;;;8.07;1.92;;;9.10;97.50;;;;;;5090353;28;20402;-76
2022/05/04 02:56:03;;;;;;;8.60;1.70;;;9.10;97.20;;;;;;5108441;28;20402;-76
2022/05/04 02:58:28;;;;;;;9.67;2.00;;;9.20;97.50;;;;;;5108222;28;20402;-76
2022/05/04 03:00:54;;;;;;;9.15;1.90;;;9.10;97.70;;;;;;5107859;28;20471;-76
2022/05/04 03:03:20;;;;;;;7.70;1.75;;;9.20;97.90;;;;;;5108580;28;20818;-76
2022/05/04 03:05:45;;;;;;;8.17;1.90;;;9.20;98.00;;;;;;5108468;28;21245;-76
2022/05/04 03:08:11;;;;;;;9.15;2.10;;;9.10;97.90;;;;;;5108252;28;20410;-76
2022/05/04 03:13:21;;;;;;;7.13;1.58;;;9.10;98.40;;;;;;5089652;28;20412;-76
2022/05/04 03:15:47;;;;;;;9.65;2.08;;;9.10;98.50;;;;;;5090181;28;20408;-76
2022/05/04 03:18:12;;;;;;;7.40;1.70;;;9.10;98.40;;;;;;5108155;28;20407;-76
2022/05/04 03:20:38;;;;;;;10.43;2.47;;;9.10;98.30;;;;;;5090315;28;20447;-76
2022/05/04 03:23:03;;;;;;;8.07;2.07;;;9.10;98.20;;;;;;5107883;28;20408;-76
2022/05/04 03:25:29;;;;;;;10.53;2.40;;;9.10;98.50;;;;;;5107856;28;20479;-76
2022/05/04 03:27:55;;;;;;;8.35;2.20;;;9.10;98.50;;;;;;5107863;28;20424;-76
2022/05/04 03:30:20;;;;;;;7.23;2.20;;;9.10;98.90;;;;;;5089719;28;20403;-76
2022/05/04 03:32:46;;;;;;;7.82;2.00;;;9.10;98.90;;;;;;5108037;28;20444;-76
2022/05/04 03:35:11;;;;;;;7.27;2.10;;;9.10;98.50;;;;;;5109757;28;20399;-76
2022/05/04 03:37:37;;;;;;;10.57;2.63;;;9.00;98.70;;;;;;5093610;28;20893;-76
2022/05/04 03:40:03;;;;;;;10.23;2.10;;;9.10;98.70;;;;;;5111611;28;20446;-76
2022/05/04 03:42:28;;;;;;;7.10;2.20;;;9.10;98.90;;;;;;5111526;28;20388;-76
2022/05/04 03:44:54;;;;;;;9.40;2.10;;;9.10;99.00;;;;;;5092666;28;20404;-77
2022/05/04 03:47:20;;;;;;;9.23;2.47;;;9.10;99.00;;;;;;5111252;28;20419;-76
2022/05/04 03:49:45;;;;;;;9.67;2.00;;;9.10;99.30;;;;;;5093094;28;20408;-76
2022/05/04 03:52:11;;;;;;;9.75;2.25;;;9.00;99.50;;;;;;5111789;28;20525;-76
2022/05/04 03:54:37;;;;;;;7.32;2.13;;;9.00;99.20;;;;;;5111900;28;20404;-76
2022/05/04 03:57:03;;;;;;;7.33;2.13;;;9.00;99.50;;;;;;5111022;28;20400;-76
2022/05/04 03:59:31;;;;;;;8.18;2.08;;;9.00;99.40;;;;;;5093245;28;20400;-76
2022/05/04 04:01:56;;;;;;;6.60;2.28;;;9.00;99.80;;;;;;5111784;28;20765;-76
2022/05/04 04:04:22;;;;;;;9.82;2.38;;;9.00;99.90;;;;;;5111774;28;20388;-76
2022/05/04 04:06:48;;;;;;;8.17;2.30;;;8.90;99.90;;;;;;5111336;28;20427;-76
2022/05/04 04:09:13;;;;;;;9.88;2.50;;;8.90;99.90;;;;;;5111468;28;20490;-76
2022/05/04 04:11:39;;;;;;;11.17;2.70;;;9.00;99.90;;;;;;5110891;28;20472;-76
2022/05/04 04:14:05;;;;;;;8.25;2.47;;;8.90;99.90;;;;;;5111141;28;20471;-76
2022/05/04 04:16:30;;;;;;;9.25;2.50;;;8.90;99.90;;;;;;5111364;28;20488;-76
2022/05/04 04:18:56;;;;;;;10.97;3.10;;;8.90;99.90;;;;;;5111162;28;20392;-76
2022/05/04 04:24:06;;;;;;;10.25;2.72;;;8.90;99.90;;;;;;5110443;28;20882;-76
2022/05/04 04:26:32;;;;;;;9.45;2.53;;;8.90;99.90;;;;;;5110771;28;20474;-75
2022/05/04 04:28:58;;;;;;;10.83;2.77;;;8.90;99.90;;;;;;5092323;28;20404;-76
2022/05/04 04:31:24;;;;;;;10.23;2.83;;;8.90;99.90;;;;;;5111101;28;20407;-76
2022/05/04 04:33:49;;;;;;;10.30;2.57;;;8.90;99.90;;;;;;5092848;28;20412;-76
2022/05/04 04:36:15;;;;;;;9.48;2.92;;;8.90;99.90;;;;;;5092743;28;20408;-76
2022/05/04 04:38:41;;;;;;;9.70;2.47;;;8.90;99.90;;;;;;5110568;28;20396;-76
2022/05/04 04:41:06;;;;;;;10.63;2.60;;;8.90;99.90;;;;;;5110901;28;20426;-76
2022/05/04 04:43:32;;;;;;;10.30;2.67;;;9.00;99.90;;;;;;5111100;28;20428;-76
2022/05/04 04:45:58;;;;;;;9.18;2.60;;;8.90;99.90;;;;;;5109600;28;21252;-76
2022/05/04 04:48:24;;;;;;;10.87;3.33;;;9.00;99.90;;;;;;5110546;28;20437;-76
2022/05/04 04:50:50;;;;;;;8.25;2.70;;;9.00;99.90;;;;;;5092119;28;21243;-76
2022/05/04 04:53:17;;;;;;;9.67;2.53;;;9.00;99.90;;;;;;5110815;28;20393;-76
2022/05/04 04:55:43;;;;;;;7.88;2.03;;;9.00;99.90;;;;;;5110693;28;20404;-76
2022/05/04 04:58:09;;;;;;;9.05;2.00;;;9.00;99.90;;;;;;5110723;28;20397;-76
2022/05/04 05:00:35;;;;;;;9.10;2.03;;;9.10;99.90;;;;;;5110283;28;20423;-76
2022/05/04 05:03:02;;;;;;;12.23;2.50;;;9.10;99.90;;;;;;5092045;28;20400;-76
2022/05/04 05:05:27;;;;;;;9.65;1.80;;;9.10;99.90;;;;;;5092220;28;20396;-76
2022/05/04 05:07:53;;;;;;;7.40;1.90;;;9.10;99.90;;;;;;5075037;28;20496;-76
2022/05/04 05:10:18;;;;;;;8.70;1.87;;;9.10;99.70;;;;;;5092199;28;20770;-76
2022/05/04 05:12:44;;;;;;;9.10;2.30;;;9.10;99.30;;;;;;5109910;28;20432;-76
2022/05/04 05:18:08;;;;;;;10.13;2.27;;;9.10;99.00;;;;;;5075265;28;20408;-77
2022/05/04 05:20:34;;;;;;;7.10;1.98;;;9.10;98.80;;;;;;5109871;28;20902;-76
2022/05/04 05:23:01;;;;;;;11.50;2.10;;;9.10;98.80;;;;;;5109944;28;20399;-76
2022/05/04 05:25:28;;;;;;;9.40;1.97;;;9.10;98.70;;;;;;5091673;28;20940;-76
2022/05/04 05:27:55;;;;;;;9.05;2.10;;;9.10;99.20;;;;;;5091162;28;20435;-76
2022/05/04 05:30:21;;;;;;;10.13;2.00;;;9.10;99.10;;;;;;5091793;28;20422;-76
2022/05/04 05:32:46;;;;;;;9.07;2.27;;;9.10;98.70;;;;;;5109840;28;20392;-76
2022/05/04 05:35:12;;;;;;;9.40;2.10;;;9.10;98.70;;;;;;5091666;28;20401;-76
2022/05/04 05:37:37;;;;;;;8.52;2.03;;;9.10;98.80;;;;;;5109347;28;20396;-76
2022/05/04 05:40:04;;;;;;;8.27;2.23;;;9.10;98.80;;;;;;5091224;28;20760;-77
2022/05/04 05:42:30;;;;;;;10.45;2.25;;;9.10;99.00;;;;;;5091380;28;20433;-74
2022/05/04 05:44:55;;;;;;;8.17;2.20;;;9.10;99.10;;;;;;5109441;28;20493;-76
2022/05/04 05:47:21;;;;;;;8.48;2.03;;;9.10;99.00;;;;;;5087602;28;20430;-76
2022/05/04 05:49:46;;;;;;;12.27;2.50;;;9.10;98.90;;;;;;5102958;27;20441;-76
2022/05/04 05:52:12;;;;;;;9.70;2.45;;;9.20;99.40;;;;;;5105146;28;20494;-75
2022/05/04 05:54:38;;;;;;;10.07;2.67;;;9.10;99.30;;;;;;5106408;28;20448;-78
2022/05/04 05:57:04;;;;;;;10.02;2.55;;;9.20;98.90;;;;;;5103319;28;20438;-78
2022/05/04 05:59:29;;;;;;;8.85;2.63;;;9.20;99.00;;;;;;5091041;28;20491;-78
2022/05/04 06:01:55;;;;;;;9.57;2.37;;;9.20;99.30;;;;;;5109315;28;20415;-77
2022/05/04 06:04:21;;;;;;;10.38;2.75;;;9.20;98.80;;;;;;5090767;28;20820;-78
2022/05/04 06:06:46;;;;;;;11.53;2.80;;;9.30;98.80;;;;;;5090583;28;20424;-78
2022/05/04 06:09:12;;;;;;;9.63;2.80;;;9.20;98.80;;;;;;5109427;28;20400;-78
2022/05/04 06:11:38;;;;;;;9.88;2.33;;;9.20;98.90;;;;;;5090474;28;20480;-77
2022/05/04 06:14:03;;;;;;;8.67;2.37;;;9.30;99.00;;;;;;5091128;28;20921;-78
2022/05/04 06:16:29;;;;;;;11.02;2.50;;;9.30;98.90;;;;;;5109134;28;20495;-78
2022/05/04 06:18:54;;;;;;;7.93;2.80;;;9.30;98.90;;;;;;5090780;28;20408;-78
2022/05/04 06:21:20;;;;;;;8.35;2.63;;;9.40;99.20;;;;;;5109172;28;20396;-78
2022/05/04 06:23:46;;;;;;;10.50;2.80;;;9.40;98.80;;;;;;5108711;28;20396;-78
2022/05/04 06:26:13;;;;;;;8.33;2.47;;;9.40;98.40;;;;;;5090232;28;20503;-78
2022/05/04 06:28:38;;;;;;;7.90;2.20;;;9.40;98.30;;;;;;5108908;28;20407;-78
2022/05/04 06:34:07;;;;;;;10.05;3.03;;;9.40;98.70;;;;;;5108839;28;20404;-77
2022/05/04 06:36:35;;;;;;;10.77;2.20;;;9.50;98.40;;;;;;5108732;28;20404;-78
2022/05/04 06:39:01;;;;;;;9.35;2.60;;;9.50;98.10;;;;;;5108323;28;21015;-76
2022/05/04 06:41:27;;;;;;;8.10;2.00;;;9.50;98.30;;;;;;5108533;28;20412;-77
2022/05/04 06:43:52;;;;;;;8.80;2.10;;;9.60;98.30;;;;;;5108221;28;20889;-77
2022/05/04 06:46:18;;;;;;;7.80;2.40;;;9.50;97.40;;;;;;5108173;28;20416;-78
2022/05/04 06:48:45;;;;;;;10.82;2.40;;;9.60;97.60;;;;;;5108187;28;20408;-78
2022/05/04 06:51:11;;;;;;;8.93;2.13;;;9.60;97.90;;;;;;5090019;28;20804;-77
2022/05/04 06:53:36;;;;;;;9.93;2.13;;;9.60;97.70;;;;;;5107865;28;20431;-78
2022/05/04 06:56:02;;;;;;;6.97;2.20;;;9.70;97.70;;;;;;5108281;28;20457;-77
2022/05/04 06:58:28;;;;;;;9.70;2.13;;;9.80;97.70;;;;;;5090468;28;20404;-78
2022/05/04 07:00:53;;;;;;;8.57;1.90;;;9.90;98.00;;;;;;5108160;28;20397;-78
2022/05/04 07:03:22;;;;;;;6.47;1.30;;;9.90;97.30;;;;;;5108299;28;20393;-78
2022/05/04 07:05:49;;;;;;;5.50;1.50;;;10.00;96.60;;;;;;5089769;28;20401;-77
2022/05/04 07:08:14;;;;;;;9.18;1.70;;;10.00;95.90;;;;;;5108425;28;20428;-78
2022/05/04 07:10:40;;;;;;;9.18;1.65;;;10.00;96.00;;;;;;5089017;28;20830;-78
2022/05/04 07:13:06;;;;;;;7.97;1.58;;;10.10;96.20;;;;;;5108182;28;20396;-78
2022/05/04 07:15:32;;;;;;;10.07;2.13;;;10.10;96.10;;;;;;5108372;28;20449;-78
2022/05/04 07:17:58;;;;;;;6.55;1.80;;;10.20;95.80;;;;;;5089671;28;21072;-78
2022/05/04 07:20:24;;;;;;;7.43;1.63;;;10.20;95.70;;;;;;5108223;28;20414;-78
2022/05/04 07:22:50;;;;;;;8.00;1.80;;;10.20;95.60;;;;;;5107775;28;20454;-78
2022/05/04 07:25:16;;;;;;;9.00;1.80;;;10.30;95.60;;;;;;5089830;28;20393;-78
2022/05/04 07:27:41;;;;;;;7.70;1.63;;;10.30;95.60;;;;;;5107948;28;20486;-77
2022/05/04 07:30:08;;;;;;;8.63;1.97;;;10.30;95.50;;;;;;5089704;28;20403;-78
2022/05/04 07:32:33;;;;;;;6.95;1.40;;;10.40;95.50;;;;;;5107666;28;20396;-77
2022/05/04 07:34:59;;;;;;;7.10;1.65;;;10.50;95.20;;;;;;5107847;28;20441;-78
2022/05/04 07:37:25;;;;;;;6.32;1.52;;;10.50;94.70;;;;;;5089847;28;20491;-78
2022/05/04 07:42:35;;;;;;;10.53;2.20;;;10.60;95.20;;;;;;5089790;28;20404;-78
2022/05/04 07:45:08;;;;;;;8.10;1.73;;;10.60;95.00;;;;;;5107561;28;20419;-78
2022/05/04 07:47:35;;;;;;;8.35;1.90;;;10.60;94.60;;;;;;5107769;28;20571;-78
2022/05/04 07:50:05;;;;;;;6.80;1.92;;;10.60;94.50;;;;;;5107717;28;20425;-78
2022/05/04 07:52:32;;;;;;;10.27;1.77;;;10.60;94.50;;;;;;5089846;28;20962;-78
2022/05/04 07:54:57;;;;;;;8.75;1.65;;;10.60;93.90;;;;;;5089411;28;20943;-78
2022/05/04 07:57:23;;;;;;;8.07;1.60;;;10.60;94.30;;;;;;5089744;28;20401;-77
2022/05/04 08:05:33;;;;;;;7.95;1.77;;;10.70;93.90;;;;;;5107553;28;20904;-77
2022/05/04 08:07:59;;;;;;;7.20;1.73;;;10.70;94.30;;;;;;5107418;28;20428;-77
2022/05/04 08:10:25;;;;;;;6.72;1.60;;;10.70;93.80;;;;;;5089883;28;20408;-77
2022/05/04 08:12:52;;;;;;;8.02;1.70;;;10.80;93.80;;;;;;5089214;28;20400;-77
2022/05/04 08:15:17;;;;;;;8.05;1.88;;;10.90;94.00;;;;;;5107733;28;20483;-77
2022/05/04 08:17:43;;;;;;;8.87;1.90;;;11.00;94.00;;;;;;5107207;28;20929;-77
2022/05/04 08:20:09;;;;;;;6.18;1.70;;;11.10;94.00;;;;;;5089311;28;20803;-77
2022/05/04 08:22:35;;;;;;;9.90;2.00;;;11.10;93.10;;;;;;5109973;28;20491;-78
2022/05/04 08:25:01;;;;;;;9.23;2.00;;;11.00;93.00;;;;;;5110925;28;20538;-77
2022/05/04 08:27:28;;;;;;;9.33;1.73;;;11.00;93.00;;;;;;5110798;28;20493;-77
2022/05/04 08:29:54;;;;;;;7.87;1.67;;;11.10;93.20;;;;;;5110959;28;20936;-77
2022/05/04 08:32:19;;;;;;;6.53;1.75;;;11.10;92.80;;;;;;5093110;28;20408;-77
2022/05/04 08:34:45;;;;;;;7.73;1.60;;;11.10;93.10;;;;;;5092351;28;20419;-77
2022/05/04 08:37:10;;;;;;;8.23;1.73;;;11.20;92.40;;;;;;5110900;28;20412;-77
2022/05/04 08:39:36;;;;;;;7.20;1.50;;;11.20;92.20;;;;;;5111075;28;20410;-77
2022/05/04 08:42:02;;;;;;;6.47;1.50;;;11.20;92.00;;;;;;5092523;28;20897;-77
2022/05/04 08:44:29;;;;;;;11.20;1.90;;;11.20;92.00;;;;;;5110423;28;20404;-77
2022/05/04 08:46:55;;;;;;;5.63;1.33;;;11.20;92.20;;;;;;5092278;28;20935;-78
2022/05/04 08:49:22;;;;;;;6.75;1.48;;;11.20;92.60;;;;;;5110957;28;20490;-78
2022/05/04 08:51:50;;;;;;;9.05;1.80;;;11.30;92.10;;;;;;5110679;28;20408;-77
2022/05/04 08:54:17;;;;;;;6.20;1.50;;;11.30;92.60;;;;;;5091935;28;20937;-78
2022/05/04 08:56:43;;;;;;;8.73;1.88;;;11.30;92.20;;;;;;5092769;28;20843;-77
2022/05/04 08:59:09;;;;;;;7.60;1.85;;;11.30;92.00;;;;;;5110504;28;20487;-77
2022/05/04 09:01:37;;;;;;;9.95;1.70;;;11.40;91.90;;;;;;5110324;28;20484;-78
2022/05/04 09:04:04;;;;;;;7.32;1.52;;;11.30;91.00;;;;;;5110341;28;20897;-78
2022/05/04 09:06:32;;;;;;;7.72;1.63;;;11.30;91.40;;;;;;5110513;28;20421;-77
2022/05/04 09:09:04;;;;;;;7.10;1.58;;;11.30;91.70;;;;;;5110159;28;20484;-77
2022/05/04 09:11:32;;;;;;;8.25;1.50;;;11.30;91.30;;;;;;5091891;28;20413;-77
2022/05/04 09:13:58;;;;;;;6.65;1.40;;;11.30;92.00;;;;;;5109821;28;20449;-77
2022/05/04 09:16:32;;;;;;;10.47;2.13;;;11.40;91.50;;;;;;5110345;28;20392;-77
2022/05/04 09:19:05;;;;;;;10.20;1.85;;;11.40;91.30;;;;;;5109912;28;20401;-78
2022/05/04 09:21:31;;;;;;;7.80;1.65;;;11.50;91.40;;;;;;5091754;28;20428;-77
2022/05/04 09:23:57;;;;;;;8.00;1.73;;;11.60;91.50;;;;;;5091309;28;20781;-77
2022/05/04 09:26:23;;;;;;;8.05;1.90;;;11.70;91.00;;;;;;5110295;28;20420;-77
2022/05/04 09:28:57;;;;;;;8.07;1.67;;;11.70;90.90;;;;;;5109661;28;20400;-77
2022/05/04 09:31:25;;;;;;;5.78;1.33;;;11.80;91.30;;;;;;5110296;28;20404;-77
2022/05/04 09:34:01;;;;;;;7.07;1.63;;;11.90;90.70;;;;;;5108544;28;20479;-77
2022/05/04 09:36:37;;;;;;;6.63;1.52;;;11.80;90.20;;;;;;5109711;28;20916;-77
2022/05/04 09:45:10;;;;;;;5.90;1.88;;;11.80;90.70;;;;;;5109272;28;20412;-77
2022/05/04 09:47:54;;;;;;;9.13;2.00;;;11.90;91.00;;;;;;5109612;28;20519;-77
2022/05/04 09:50:20;;;;;;;7.55;1.80;;;12.00;90.80;;;;;;5091482;28;20417;-77
2022/05/04 09:52:48;;;;;;;7.00;1.98;;;12.10;90.30;;;;;;5109222;28;20400;-78
2022/05/04 09:55:23;;;;;;;9.05;1.77;;;12.10;90.30;;;;;;5109298;28;20433;-78
2022/05/04 09:57:50;;;;;;;7.10;1.52;;;12.20;90.00;;;;;;5108675;28;20923;-77
2022/05/04 10:00:19;;;;;;;7.68;1.50;;;12.20;90.30;;;;;;5091114;28;20417;-78
2022/05/04 10:02:46;;;;;;;6.35;1.70;;;12.40;90.30;;;;;;5109303;28;20471;-77
2022/05/04 10:05:12;;;;;;;6.60;1.50;;;12.30;87.80;;;;;;5108894;28;20392;-77
2022/05/04 10:07:38;;;;;;;8.00;1.40;;;12.20;88.40;;;;;;5108740;28;20425;-77
2022/05/04 10:10:09;;;;;;;7.53;1.38;;;12.20;89.20;;;;;;5089752;28;20404;-77
2022/05/04 10:12:41;;;;;;;8.73;1.70;;;12.30;88.90;;;;;;5108221;28;20404;-78
2022/05/04 10:15:10;;;;;;;6.03;1.60;;;12.40;88.40;;;;;;5090673;28;20423;-78
2022/05/04 10:17:43;;;;;;;7.97;1.95;;;12.50;87.90;;;;;;5109241;28;20396;-77
2022/05/04 10:20:21;;;;;;;8.05;1.60;;;12.40;87.90;;;;;;5108807;28;20433;-78
2022/05/04 10:22:53;;;;;;;5.00;1.02;;;12.50;88.90;;;;;;5108378;28;20392;-78
2022/05/04 10:25:20;;;;;;;4.80;0.93;;;12.60;87.20;;;;;;5108749;28;20436;-77
2022/05/04 10:27:49;;;;;;;7.32;1.30;;;12.70;87.70;;;;;;5090420;28;20986;-78
2022/05/04 10:30:30;;;;;;;6.37;1.27;;;12.80;86.70;;;;;;5108929;28;20406;-78
2022/05/04 10:33:05;;;;;;;7.28;1.45;;;12.90;88.70;;;;;;5108587;28;20491;-77
2022/05/04 10:35:34;;;;;;;6.15;1.35;;;13.10;86.60;;;;;;5108598;28;20400;-78
2022/05/04 10:37:59;;;;;;;6.03;1.30;;;13.20;86.10;;;;;;5108511;28;20400;-78
2022/05/04 10:40:26;;;;;;;6.15;1.42;;;13.30;87.10;;;;;;5090683;28;20947;-77
2022/05/04 10:42:56;;;;;;;6.65;1.38;;;13.20;86.10;;;;;;5108610;28;20457;-78
2022/05/04 10:45:24;;;;;;;7.20;1.63;;;13.30;86.40;;;;;;5107293;28;20408;-78
2022/05/04 10:47:49;;;;;;;9.95;1.58;;;13.30;85.40;;;;;;5108489;28;20446;-78
2022/05/04 10:50:18;;;;;;;9.17;1.60;;;13.20;86.70;;;;;;5108547;28;20765;-78
2022/05/04 10:52:48;;;;;;;6.10;1.35;;;13.30;86.80;;;;;;5090200;28;20404;-78
2022/05/04 10:55:16;;;;;;;6.45;1.52;;;13.50;86.50;;;;;;5108063;28;20396;-78
2022/05/04 10:57:42;;;;;;;5.38;1.30;;;13.60;85.10;;;;;;5090376;28;20833;-78
2022/05/04 11:00:10;;;;;;;7.47;1.80;;;13.70;85.50;;;;;;5108475;28;20508;-78
2022/05/04 11:02:42;;;;;;;7.85;1.52;;;13.70;85.30;;;;;;5108324;28;20396;-78
2022/05/04 11:05:12;;;;;;;6.55;1.70;;;13.80;85.20;;;;;;5089586;28;20436;-78
2022/05/04 11:07:38;;;;;;;4.95;1.25;;;14.00;84.20;;;;;;5108178;28;20431;-77
2022/05/04 11:10:04;;;;;;;6.85;1.60;;;14.10;83.40;;;;;;5108031;28;20399;-78
2022/05/04 11:12:30;;;;;;;6.03;1.30;;;14.30;83.70;;;;;;5108616;28;20731;-78
2022/05/04 11:14:55;;;;;;;7.03;1.50;;;14.40;82.40;;;;;;5108070;28;20431;-78
2022/05/04 11:17:21;;;;;;;5.90;1.33;;;14.50;83.80;;;;;;5108171;28;20407;-78
2022/05/04 11:19:48;;;;;;;7.13;1.33;;;14.60;82.40;;;;;;5073021;28;20428;-77
2022/05/04 11:22:15;;;;;;;7.90;1.38;;;14.60;81.70;;;;;;5108201;28;20439;-78
2022/05/04 11:24:41;;;;;;;6.63;1.50;;;14.50;81.10;;;;;;5089872;28;20479;-78
2022/05/04 11:27:07;;;;;;;4.63;1.27;;;14.50;80.90;;;;;;5107701;28;20428;-78
2022/05/04 11:29:33;;;;;;;6.47;1.10;;;14.40;80.90;;;;;;5090120;28;20404;-78
2022/05/04 11:32:01;;;;;;;6.40;1.40;;;14.30;80.70;;;;;;5089346;28;20991;-79
2022/05/04 11:34:30;;;;;;;6.00;1.40;;;14.20;80.90;;;;;;5089588;28;20537;-79
2022/05/04 11:36:58;;;;;;;6.00;1.48;;;14.20;80.00;;;;;;5108123;28;20401;-78
2022/05/04 11:39:26;;;;;;;7.68;1.45;;;14.10;80.30;;;;;;5089879;28;21035;-79
2022/05/04 11:41:56;;;;;;;7.60;1.25;;;14.00;81.50;;;;;;5108114;28;20396;-79
2022/05/04 11:44:23;;;;;;;7.18;1.40;;;14.10;82.40;;;;;;5107405;28;20815;-79
2022/05/04 11:46:57;;;;;;;7.05;1.20;;;14.20;82.00;;;;;;5107058;28;20511;-79
2022/05/04 11:49:26;;;;;;;6.78;1.33;;;14.30;80.70;;;;;;5107869;28;20410;-79
2022/05/04 11:51:53;;;;;;;6.68;1.30;;;14.50;81.70;;;;;;5089124;28;20439;-79
2022/05/04 11:54:19;;;;;;;7.35;1.27;;;15.00;81.60;;;;;;5108255;28;20400;-79
2022/05/04 11:56:45;;;;;;;5.13;1.10;;;15.40;78.50;;;;;;5110431;28;20781;-79
2022/05/04 11:59:10;;;;;;;5.30;1.20;;;15.60;78.70;;;;;;5111721;28;20414;-79
2022/05/04 12:01:37;;;;;;;5.47;1.13;;;15.80;76.70;;;;;;5111773;28;21015;-79
2022/05/04 12:04:05;;;;;;;7.47;1.35;;;15.70;76.20;;;;;;5111191;28;20400;-79
2022/05/04 12:06:33;;;;;;;7.50;1.30;;;15.50;76.20;;;;;;5111846;28;20443;-79
2022/05/04 12:08:59;;;;;;;7.47;1.47;;;15.40;76.70;;;;;;5111307;28;20400;-79
2022/05/04 12:11:25;;;;;;;5.67;1.30;;;15.30;76.50;;;;;;5110966;28;20397;-79
2022/05/04 12:13:52;;;;;;;6.65;1.30;;;15.30;76.60;;;;;;5110378;28;20525;-79
2022/05/04 12:16:18;;;;;;;5.85;1.52;;;15.40;77.10;;;;;;5110583;28;20479;-79
2022/05/04 12:18:44;;;;;;;7.30;1.25;;;15.80;76.70;;;;;;5091907;28;20526;-79
2022/05/04 12:21:19;;;;;;;6.07;1.20;;;16.30;75.00;;;;;;5110171;28;20433;-79
2022/05/04 12:23:48;;;;;;;6.38;1.40;;;16.50;75.00;;;;;;5110662;28;20865;-79
2022/05/04 12:26:14;;;;;;;4.53;1.10;;;16.60;73.40;;;;;;5093047;28;20404;-79
2022/05/04 12:28:41;;;;;;;7.33;1.40;;;16.50;71.80;;;;;;5111395;28;21248;-79
2022/05/04 12:33:56;;;;;;;6.55;1.45;;;16.70;71.50;;;;;;5111015;28;20400;-79
2022/05/04 12:36:26;;;;;;;5.30;1.00;;;17.10;71.60;;;;;;5092471;28;20400;-79
2022/05/04 12:38:53;;;;;;;4.47;1.00;;;17.30;71.60;;;;;;5092587;28;20906;-79
2022/05/04 12:41:21;;;;;;;6.65;1.35;;;17.70;70.30;;;;;;5092726;28;20408;-79
2022/05/04 12:43:48;;;;;;;5.88;1.15;;;18.00;69.30;;;;;;5110905;28;20408;-79
2022/05/04 12:46:15;;;;;;;4.82;1.08;;;18.20;66.30;;;;;;5110534;28;20617;-79
2022/05/04 12:48:46;;;;;;;4.65;1.13;;;18.40;67.30;;;;;;5110714;28;20917;-79
2022/05/04 12:51:16;;;;;;;6.30;1.20;;;18.40;66.20;;;;;;5110300;28;20404;-80
2022/05/04 12:53:45;;;;;;;10.02;1.50;;;18.50;66.20;;;;;;5092757;28;20897;-79
2022/05/04 12:58:55;;;;;;;6.85;1.20;;;18.90;65.40;;;;;;5110717;28;20396;-80
2022/05/04 13:01:23;;;;;;;6.78;1.40;;;19.20;63.20;;;;;;5110644;28;20980;-79
2022/05/04 13:03:50;;;;;;;6.13;1.20;;;19.30;62.90;;;;;;5110442;28;20404;-79
2022/05/04 13:06:16;;;;;;;6.28;1.25;;;19.40;61.50;;;;;;5091662;28;20405;-80
2022/05/04 13:08:42;;;;;;;6.50;1.10;;;19.50;62.00;;;;;;5109641;28;20440;-79
2022/05/04 13:11:08;;;;;;;5.40;1.07;;;19.50;60.20;;;;;;5092587;28;20445;-79
2022/05/04 13:13:33;;;;;;;5.80;1.17;;;19.40;60.20;;;;;;5092352;28;20384;-80
2022/05/04 13:15:59;;;;;;;5.78;1.25;;;19.50;59.30;;;;;;5110029;28;20576;-79
2022/05/04 13:18:24;;;;;;;5.63;1.10;;;19.50;59.60;;;;;;5092570;28;20409;-79
2022/05/04 13:20:51;;;;;;;6.40;1.40;;;19.50;59.20;;;;;;5108844;28;20533;-79
2022/05/04 13:23:17;;;;;;;5.30;0.93;;;19.40;59.00;;;;;;5109395;28;20419;-79